KSQL/SQL METAR and TAF weather

Enter ICAO airport designator
Station Type Date Time Source
KSQL METAR 2019/08/22 03:47 UTC NOAA

KSQL 220347Z 27011G17KT 10SM SKC 22/18 A2989


Station Type Date Time Source
KSQL Decoded METAR 2019/08/22 03:47 UTC NOAA

Station name not available
Aug 21, 2019 - 11:47 PM EDT / 2019.08.22 0347 UTC
Wind: from the W (270 degrees) at 13 MPH (11 KT) gusting to 20 MPH (17 KT):0
Visibility: 10 mile(s):0
Sky conditions: clear
Temperature: 71 F (22 C)
Dew Point: 64 F (18 C)
Relative Humidity: 78%
Pressure (altimeter): 29.89 in. Hg (1012 hPa)
ob: KSQL 220347Z 27011G17KT 10SM SKC 22/18 A2989
cycle: 4

Station Type Date Time Source
KSQL TAF UTC NOAA

Error!

Example: see airport list